Weather History for Gustavus, AK

Change the Weather History Date:

Friday, November 4, 2011

  Actual Average Record
Temperature  
Mean Temperature 32 °F -  
Max Temperature 33 °F 42 °F 53 °F (1949)
Min Temperature 30 °F 31 °F 7 °F (1955)
Degree Days  
Heating Degree Days 34    
Moisture  
Dew Point 26 °F    
Average Humidity 80    
Maximum Humidity 93    
Minimum Humidity 51    
Precipitation  
Precipitation 0.00 in - - ()
Sea Level Pressure  
Sea Level Pressure 29.58 in    
Wind  
Wind Speed 9 mph (NNE)    
Max Wind Speed 16 mph    
Max Gust Speed 21 mph    
Visibility 6 miles    
Events      
Averages and records for this station are not official NWS values.
T = Trace of Precipitation, MM = Missing Value Source: NWS Daily Summary

Daily Weather History Graph

Daily Weather History Graph

Search for Another Location

Airport:

Trip Planner

Search our weather history database for the weather conditions in past years. The results will help you decide how hot, cold, wet, or windy it might be!

Date:

Astronomy

Nov. 04, 2011 Rise Set
Actual Time 8:25 AM AKDT 5:06 PM AKDT
Civil Twilight 7:42 AM AKDT 5:49 PM AKDT
Nautical Twilight 6:54 AM AKDT 6:37 PM AKDT
Astronomical Twilight 6:08 AM AKDT 7:23 PM AKDT
Moon 3:04 PM AKDT (11/4) 1:33 AM AKDT (11/4)
Length of Visible Light 10h 07m
Length of Day
8h 40m
Waxing Gibbous, 71% of the Moon is Illuminated
Nov 4
Waxing Gibbous
Nov 10
Full
Nov 18
Last Quarter
Nov 24
New
Dec 2
First Quarter

Hourly Weather History & Observations

Time (AKDT) Temp. Windchill Dew Point Humidity Pressure Visibility Wind Dir Wind Speed Gust Speed Precip Events Conditions
12:16 AM 32.0 °F 25.6 °F 17.6 °F 55% 29.93 in 10.0 mi SSE 6.9 mph - N/A   Overcast
12:36 AM 32.0 °F 25.6 °F 15.8 °F 51% 29.92 in 10.0 mi SSE 6.9 mph - N/A   Overcast
12:56 AM 32.0 °F 24.2 °F 17.6 °F 55% 29.90 in 10.0 mi SE 9.2 mph - N/A   Overcast
1:16 AM 33.8 °F 24.8 °F 17.6 °F 52% 29.89 in 10.0 mi SSE 12.7 mph - N/A   Overcast
1:36 AM 33.8 °F 26.4 °F 17.6 °F 52% 29.87 in 10.0 mi SE 9.2 mph - N/A   Mostly Cloudy
1:56 AM 33.8 °F 25.3 °F 17.6 °F 52% 29.86 in 10.0 mi SSE 11.5 mph - N/A   Overcast
2:16 AM 33.8 °F 25.8 °F 19.4 °F 56% 29.85 in 10.0 mi SE 10.4 mph - N/A   Overcast
2:36 AM 32.0 °F 23.0 °F 21.2 °F 64% 29.84 in 8.0 mi SE 11.5 mph - N/A   Overcast
2:56 AM 30.2 °F 19.8 °F 23.0 °F 75% 29.83 in 4.0 mi SE 13.8 mph - N/A   Overcast
3:16 AM 30.2 °F 21.9 °F 24.8 °F 80% 29.82 in 3.0 mi ESE 9.2 mph - N/A   Overcast
3:36 AM 30.2 °F 21.9 °F 24.8 °F 80% 29.80 in 2.5 mi ESE 9.2 mph - N/A   Overcast
3:56 AM 30.2 °F 18.9 °F 24.8 °F 80% 29.78 in 3.0 mi ESE 16.1 mph - N/A   Overcast
4:16 AM 30.2 °F 20.8 °F 24.8 °F 80% 29.77 in 5.0 mi SE 11.5 mph - N/A   Overcast
4:36 AM 30.2 °F 21.3 °F 24.8 °F 80% 29.75 in 3.0 mi SE 10.4 mph - N/A   Overcast
4:56 AM 30.2 °F 20.8 °F 24.8 °F 80% 29.74 in 2.5 mi ESE 11.5 mph - N/A   Overcast
5:16 AM 30.2 °F 20.8 °F 26.6 °F 86% 29.72 in 3.0 mi ESE 11.5 mph - N/A   Overcast
5:36 AM 30.2 °F 21.3 °F 26.6 °F 86% 29.70 in 2.5 mi ESE 10.4 mph - N/A   Overcast
5:56 AM 30.2 °F 21.3 °F 24.8 °F 80% 29.69 in 10.0 mi SE 10.4 mph 18.4 mph N/A   Mostly Cloudy
6:16 AM 32.0 °F 24.2 °F 24.8 °F 75% 29.68 in 10.0 mi SE 9.2 mph - N/A   Overcast
6:36 AM 32.0 °F 23.0 °F 24.8 °F 75% 29.66 in 10.0 mi ESE 11.5 mph 16.1 mph N/A   Overcast
6:56 AM 33.8 °F 25.3 °F 23.0 °F 65% 29.65 in 10.0 mi SE 11.5 mph 16.1 mph N/A   Overcast
7:16 AM 33.8 °F 25.8 °F 23.0 °F 65% 29.64 in 10.0 mi SE 10.4 mph 16.1 mph N/A   Overcast
7:36 AM 33.8 °F 27.0 °F 23.0 °F 65% 29.63 in 10.0 mi SE 8.1 mph - N/A   Overcast
7:56 AM 33.8 °F 25.3 °F 23.0 °F 65% 29.62 in 10.0 mi SE 11.5 mph 20.7 mph N/A   Overcast
8:16 AM 33.8 °F 27.7 °F 24.8 °F 70% 29.61 in 6.0 mi ESE 6.9 mph - N/A   Overcast
8:36 AM 33.8 °F 27.7 °F 24.8 °F 70% 29.60 in 6.0 mi East 6.9 mph - N/A   Overcast
8:56 AM 30.2 °F 22.6 °F 26.6 °F 86% 29.59 in 6.0 mi NNW 8.1 mph - N/A   Overcast
9:16 AM 30.2 °F 25.4 °F 26.6 °F 86% 29.58 in 10.0 mi North 4.6 mph - N/A   Overcast
9:36 AM 30.2 °F - 26.6 °F 86% 29.57 in 10.0 mi Calm Calm - N/A   Overcast
9:56 AM 30.2 °F 23.4 °F 26.6 °F 86% 29.56 in 10.0 mi NNW 6.9 mph - N/A   Overcast
10:16 AM 30.2 °F 22.6 °F 26.6 °F 86% 29.55 in 10.0 mi NNW 8.1 mph - N/A   Overcast
10:36 AM 30.2 °F 21.3 °F 26.6 °F 86% 29.54 in 10.0 mi NNW 10.4 mph - N/A   Overcast
10:56 AM 30.2 °F 22.6 °F 26.6 °F 86% 29.53 in 7.0 mi NNW 8.1 mph - N/A   Overcast
11:16 AM 30.2 °F 22.6 °F 26.6 °F 86% 29.52 in 5.0 mi NNW 8.1 mph - N/A   Overcast
11:36 AM 30.2 °F 24.3 °F 26.6 °F 86% 29.51 in 4.0 mi NW 5.8 mph - N/A   Overcast
11:56 AM 30.2 °F 22.6 °F 28.4 °F 93% 29.51 in 2.5 mi NNW 8.1 mph - N/A   Overcast
12:16 PM 30.2 °F 23.4 °F 28.4 °F 93% 29.50 in 2.0 mi NNW 6.9 mph - N/A   Overcast
12:36 PM 30.2 °F 21.9 °F 28.4 °F 93% 29.49 in 1.2 mi NNW 9.2 mph - N/A   Overcast
12:56 PM 30.2 °F 22.6 °F 28.4 °F 93% 29.47 in 2.0 mi NNW 8.1 mph - N/A   Overcast
1:36 PM 30.2 °F 20.8 °F 28.4 °F 93% 29.45 in 1.8 mi NNW 11.5 mph - N/A   Overcast
1:56 PM 30.2 °F 20.8 °F 28.4 °F 93% 29.44 in 3.0 mi NW 11.5 mph - N/A   Overcast
2:16 PM 32.0 °F 23.0 °F 28.4 °F 87% 29.44 in 3.0 mi NNW 11.5 mph - N/A   Overcast
2:36 PM 32.0 °F 22.5 °F 28.4 °F 87% 29.43 in 2.5 mi NNW 12.7 mph - N/A   Overcast
2:56 PM 32.0 °F 22.5 °F 28.4 °F 87% 29.43 in 3.0 mi NNW 12.7 mph - N/A   Overcast
3:16 PM 32.0 °F 22.5 °F 28.4 °F 87% 29.43 in 4.0 mi NNW 12.7 mph - N/A   Overcast
3:36 PM 32.0 °F 23.0 °F 28.4 °F 87% 29.42 in 4.0 mi NNW 11.5 mph - N/A   Overcast
3:56 PM 32.0 °F 23.6 °F 28.4 °F 87% 29.42 in 2.5 mi NNW 10.4 mph - N/A   Overcast
4:16 PM 32.0 °F 23.0 °F 28.4 °F 87% 29.42 in 6.0 mi NNW 11.5 mph - N/A   Overcast
4:36 PM 32.0 °F 23.6 °F 28.4 °F 87% 29.41 in 6.0 mi NNW 10.4 mph - N/A   Overcast
4:56 PM 32.0 °F 24.2 °F 28.4 °F 87% 29.41 in 8.0 mi NNW 9.2 mph - N/A   Overcast
5:16 PM 32.0 °F 24.8 °F 28.4 °F 87% 29.41 in 2.5 mi NNW 8.1 mph - N/A   Overcast
5:36 PM 32.0 °F 24.2 °F 28.4 °F 87% 29.41 in 3.0 mi NNW 9.2 mph - N/A   Overcast
5:56 PM 32.0 °F 23.0 °F 28.4 °F 87% 29.41 in 5.0 mi NNW 11.5 mph - N/A   Overcast
6:16 PM 32.0 °F 23.6 °F 28.4 °F 87% 29.41 in 10.0 mi NNW 10.4 mph - N/A   Overcast
6:36 PM 33.8 °F 27.0 °F 28.4 °F 81% 29.41 in 10.0 mi NNW 8.1 mph - N/A   Overcast
6:56 PM 33.8 °F 27.0 °F 28.4 °F 81% 29.41 in 5.0 mi NNW 8.1 mph - N/A   Overcast
7:16 PM 33.8 °F 27.7 °F 28.4 °F 81% 29.41 in 4.0 mi NNW 6.9 mph - N/A   Overcast
7:36 PM 33.8 °F 27.7 °F 28.4 °F 81% 29.41 in 3.0 mi North 6.9 mph - N/A   Overcast
7:56 PM 33.8 °F 26.4 °F 30.2 °F 87% 29.41 in 3.0 mi NNW 9.2 mph - N/A   Overcast
8:16 PM 33.8 °F 25.8 °F 30.2 °F 87% 29.41 in 4.0 mi NNW 10.4 mph - N/A   Overcast
8:56 PM 33.8 °F 26.4 °F 30.2 °F 87% 29.41 in 4.0 mi NNW 9.2 mph - N/A   Overcast
9:16 PM 33.8 °F 27.0 °F 30.2 °F 87% 29.41 in 4.0 mi NNW 8.1 mph - N/A   Overcast
9:36 PM 33.8 °F 25.8 °F 30.2 °F 87% 29.41 in 4.0 mi NNW 10.4 mph - N/A   Overcast
9:56 PM 33.8 °F 27.7 °F 30.2 °F 87% 29.41 in 3.0 mi NNW 6.9 mph - N/A   Overcast
10:16 PM 33.8 °F 27.0 °F 30.2 °F 87% 29.42 in 3.0 mi NNW 8.1 mph - N/A   Overcast
10:36 PM 33.8 °F 27.7 °F 30.2 °F 87% 29.42 in 3.0 mi North 6.9 mph - N/A   Overcast
10:56 PM 33.8 °F 27.0 °F 30.2 °F 87% 29.42 in 3.0 mi NNW 8.1 mph - N/A   Overcast
11:36 PM 33.8 °F 27.7 °F 30.2 °F 87% 29.43 in 3.0 mi NNW 6.9 mph - N/A   Overcast
11:56 PM 33.8 °F 27.7 °F 30.2 °F 87% 29.44 in 3.0 mi NNW 6.9 mph - N/A   Overcast